createdAt,value
2023-04-02T00:01:45.777Z,84.05
2023-04-02T00:04:22.395Z,83.98
2023-04-02T00:06:54.497Z,84.29
2023-04-02T00:09:32.539Z,83.85
2023-04-02T00:12:15.312Z,83.54
2023-04-02T00:14:51.509Z,82.38
2023-04-02T00:17:20.774Z,82.73
2023-04-02T00:19:53.794Z,82.67
2023-04-02T00:22:23.742Z,82.67
2023-04-02T00:24:54.815Z,82.65
2023-04-02T00:27:22.812Z,82.07
2023-04-02T00:29:52.494Z,82.47
2023-04-02T00:32:24.340Z,82.03
2023-04-02T00:34:52.178Z,81.17
2023-04-02T00:37:28.069Z,80.66
2023-04-02T00:40:01.713Z,80.31
2023-04-02T00:42:31.549Z,80.93
2023-04-02T00:44:59.644Z,80.81
2023-04-02T00:47:32.023Z,81.28
2023-04-02T00:50:06.503Z,79.37
2023-04-02T00:52:35.823Z,79.74
2023-04-02T00:55:10.347Z,79.37
2023-04-02T00:57:38.397Z,79.54
2023-04-02T01:00:21.292Z,79.99
2023-04-02T01:03:28.570Z,80.14
2023-04-02T01:06:03.737Z,80.59
2023-04-02T01:08:45.403Z,81.14
2023-04-02T01:11:30.322Z,81.37
2023-04-02T01:14:06.244Z,81.86
2023-04-02T01:16:46.716Z,81.94
2023-04-02T01:19:38.147Z,81.55
2023-04-02T01:22:10.515Z,81.79
2023-04-02T01:24:38.460Z,82.20
2023-04-02T01:27:14.160Z,83.69
2023-04-02T01:29:48.466Z,82.14
2023-04-02T01:32:19.356Z,81.12
2023-04-02T01:34:48.589Z,81.83
2023-04-02T01:37:28.831Z,81.79
2023-04-02T01:40:11.184Z,81.50
2023-04-02T01:42:44.237Z,82.01
2023-04-02T01:45:17.027Z,82.53
2023-04-02T01:47:45.767Z,82.52
2023-04-02T01:50:23.904Z,83.07
2023-04-02T01:52:55.164Z,82.90
2023-04-02T01:55:31.263Z,83.32
2023-04-02T01:58:01.234Z,83.40
2023-04-02T02:00:32.938Z,83.06
2023-04-02T02:03:02.146Z,83.23
2023-04-02T02:05:30.593Z,84.02
2023-04-02T02:08:01.247Z,84.52
2023-04-02T02:10:34.098Z,84.72
2023-04-02T02:13:03.412Z,84.85
2023-04-02T02:15:34.737Z,84.74
2023-04-02T02:18:06.581Z,85.17
2023-04-02T02:20:36.057Z,85.62
2023-04-02T02:23:05.659Z,85.91
2023-04-02T02:25:37.084Z,85.60
2023-04-02T02:28:08.989Z,85.73
2023-04-02T02:30:40.193Z,85.79
2023-04-02T02:33:16.298Z,86.00
2023-04-02T02:35:50.819Z,85.60
2023-04-02T02:38:41.109Z,85.48
2023-04-02T02:41:15.366Z,85.58
2023-04-02T02:43:48.491Z,86.01
2023-04-02T02:46:21.331Z,86.53
2023-04-02T02:48:49.829Z,87.13
2023-04-02T02:51:24.741Z,87.12
2023-04-02T02:53:56.007Z,86.63
2023-04-02T02:56:25.229Z,87.20
2023-04-02T02:58:54.875Z,86.56
2023-04-02T03:01:23.897Z,87.20
2023-04-02T03:03:55.629Z,86.89
2023-04-02T03:06:23.738Z,87.12
2023-04-02T03:08:57.028Z,87.63
2023-04-02T03:11:53.737Z,88.40
2023-04-02T03:14:29.718Z,86.97
2023-04-02T03:17:05.619Z,87.37
2023-04-02T03:19:39.563Z,88.16
2023-04-02T03:22:14.168Z,89.23
2023-04-02T03:24:50.831Z,89.66
2023-04-02T03:27:23.546Z,87.35
2023-04-02T03:30:02.822Z,87.33
2023-04-02T03:32:36.722Z,85.93
2023-04-02T03:35:24.691Z,85.81
2023-04-02T03:37:59.725Z,86.12
2023-04-02T03:40:32.663Z,86.65
2023-04-02T03:43:06.468Z,87.10
2023-04-02T03:45:39.598Z,87.65
2023-04-02T03:48:13.268Z,89.06
2023-04-02T03:50:47.198Z,88.39
2023-04-02T03:53:14.982Z,86.82
2023-04-02T03:55:43.918Z,86.97
2023-04-02T03:58:16.534Z,87.47
2023-04-02T04:00:49.933Z,88.40
2023-04-02T04:03:24.765Z,87.88
2023-04-02T04:05:57.438Z,85.73
2023-04-02T04:08:28.818Z,85.80
2023-04-02T04:10:59.852Z,87.68
2023-04-02T04:13:36.004Z,87.45
2023-04-02T04:16:07.680Z,85.87
2023-04-02T04:18:44.669Z,84.99
2023-04-02T04:21:22.859Z,84.86
2023-04-02T04:23:52.252Z,85.25
2023-04-02T04:26:25.240Z,84.88
2023-04-02T04:29:05.379Z,86.10
2023-04-02T04:31:39.743Z,84.48
2023-04-02T04:34:16.157Z,84.14
2023-04-02T04:36:48.063Z,84.77
2023-04-02T04:39:24.708Z,84.79
2023-04-02T04:41:53.818Z,86.30
2023-04-02T04:44:24.695Z,84.74
2023-04-02T04:46:57.651Z,84.26
2023-04-02T04:49:31.645Z,84.76
2023-04-02T04:52:06.748Z,84.67
2023-04-02T04:54:38.730Z,85.80
2023-04-02T04:57:07.617Z,86.98
2023-04-02T04:59:42.483Z,86.12
2023-04-02T05:02:16.100Z,85.54
2023-04-02T05:04:50.773Z,85.55
2023-04-02T05:07:21.854Z,86.16
2023-04-02T05:09:56.304Z,86.14
2023-04-02T05:12:35.100Z,86.71
2023-04-02T05:15:10.642Z,87.24
2023-04-02T05:17:47.579Z,87.38
2023-04-02T05:20:22.691Z,86.57
2023-04-02T05:22:54.306Z,87.15
2023-04-02T05:25:25.106Z,87.12
2023-04-02T05:27:59.011Z,87.68
2023-04-02T05:30:49.453Z,88.27
2023-04-02T05:33:23.579Z,88.21
2023-04-02T05:35:59.556Z,88.62
2023-04-02T05:38:29.625Z,88.67
2023-04-02T05:41:02.308Z,89.12
2023-04-02T05:43:34.055Z,89.17
2023-04-02T05:46:08.965Z,88.36
2023-04-02T05:48:40.471Z,88.08
2023-04-02T05:51:16.818Z,87.52
2023-04-02T05:53:50.435Z,88.21
2023-04-02T05:56:21.600Z,87.96
2023-04-02T05:58:52.505Z,87.76
2023-04-02T06:01:33.425Z,88.38
2023-04-02T06:04:08.753Z,88.53
2023-04-02T06:06:49.985Z,89.11
2023-04-02T06:09:25.286Z,89.05
2023-04-02T06:12:00.091Z,89.20
2023-04-02T06:14:27.747Z,89.53
2023-04-02T06:16:55.711Z,88.95
2023-04-02T06:19:28.464Z,89.48
2023-04-02T06:22:08.608Z,89.52
2023-04-02T06:24:38.592Z,89.57
2023-04-02T06:27:07.850Z,89.32
2023-04-02T06:29:39.941Z,89.06
2023-04-02T06:32:09.769Z,88.39
2023-04-02T06:34:39.766Z,88.15
2023-04-02T06:37:19.357Z,87.54
2023-04-02T06:39:47.212Z,88.04
2023-04-02T06:42:18.765Z,89.01
2023-04-02T06:44:46.868Z,87.18
2023-04-02T06:47:23.371Z,85.88
2023-04-02T06:49:55.952Z,85.42
2023-04-02T06:52:29.732Z,86.21
2023-04-02T06:54:57.512Z,86.42
2023-04-02T06:57:25.687Z,85.57
2023-04-02T06:59:53.424Z,85.77
2023-04-02T07:02:29.927Z,85.68
2023-04-02T07:05:03.432Z,84.65
2023-04-02T07:07:32.509Z,84.96
2023-04-02T07:10:00.365Z,85.44
2023-04-02T07:12:28.188Z,83.32
2023-04-02T07:14:55.903Z,84.36
2023-04-02T07:17:23.748Z,82.76
2023-04-02T07:19:51.609Z,82.23
2023-04-02T07:22:20.021Z,80.68
2023-04-02T07:24:49.118Z,81.48
2023-04-02T07:27:16.800Z,79.67
2023-04-02T07:29:44.721Z,79.78
2023-04-02T07:32:13.862Z,79.87
2023-04-02T07:34:42.409Z,79.10
2023-04-02T07:37:13.850Z,79.56
2023-04-02T07:39:41.535Z,79.00
2023-04-02T07:42:11.293Z,77.49
2023-04-02T07:44:39.058Z,77.63
2023-04-02T07:47:07.387Z,76.49
2023-04-02T07:49:35.063Z,75.71
2023-04-02T07:52:02.879Z,75.51
2023-04-02T07:54:30.700Z,75.01
2023-04-02T07:56:58.605Z,74.55
2023-04-02T07:59:27.615Z,74.92
2023-04-02T08:01:55.658Z,75.40
2023-04-02T08:04:24.063Z,76.46
2023-04-02T08:09:20.759Z,74.78
2023-04-02T08:11:48.504Z,75.45
2023-04-02T08:14:16.338Z,75.58
2023-04-02T08:16:50.669Z,74.37
2023-04-02T08:19:18.605Z,75.70
2023-04-02T08:21:47.998Z,75.52
2023-04-02T08:24:17.911Z,77.62
2023-04-02T08:26:46.309Z,77.44
2023-04-02T08:29:14.267Z,76.63
2023-04-02T08:31:41.892Z,76.11
2023-04-02T08:34:11.173Z,78.30
2023-04-02T08:36:42.448Z,78.90
2023-04-02T08:39:11.857Z,78.22
2023-04-02T08:41:45.213Z,78.93
2023-04-02T08:44:24.080Z,78.05
2023-04-02T08:46:56.393Z,79.72
2023-04-02T08:49:31.525Z,77.99
2023-04-02T08:52:00.464Z,77.71
2023-04-02T08:54:30.550Z,76.83
2023-04-02T08:57:02.883Z,75.60
2023-04-02T08:59:35.748Z,73.54
2023-04-02T09:02:23.405Z,74.00
2023-04-02T09:04:52.981Z,73.78
2023-04-02T09:07:20.899Z,72.38
2023-04-02T09:09:50.914Z,73.41
2023-04-02T09:12:20.450Z,73.36
2023-04-02T09:15:00.195Z,73.62
2023-04-02T09:17:29.991Z,74.11
2023-04-02T09:20:06.178Z,73.81
2023-04-02T09:22:35.045Z,73.73
2023-04-02T09:25:05.486Z,73.24
2023-04-02T09:27:36.217Z,72.09
2023-04-02T09:30:13.696Z,72.97
2023-04-02T09:32:49.069Z,72.80
2023-04-02T09:35:26.074Z,71.56
2023-04-02T09:38:19.484Z,72.66
2023-04-02T09:40:52.940Z,72.45
2023-04-02T09:43:22.743Z,74.23
2023-04-02T09:45:59.575Z,73.19
2023-04-02T09:48:31.152Z,73.15
2023-04-02T09:51:14.184Z,72.38
2023-04-02T09:53:43.032Z,73.99
2023-04-02T09:56:16.636Z,73.16
2023-04-02T09:58:45.869Z,73.48
2023-04-02T10:01:29.489Z,78.79
2023-04-02T10:03:59.081Z,82.78
2023-04-02T10:06:29.712Z,83.80
2023-04-02T10:08:58.031Z,84.71
2023-04-02T10:11:36.594Z,86.86
2023-04-02T10:14:19.627Z,86.83
2023-04-02T10:16:51.241Z,86.89
2023-04-02T10:19:26.349Z,86.72
2023-04-02T10:21:56.892Z,88.64
2023-04-02T10:24:24.945Z,86.09
2023-04-02T10:27:03.116Z,87.13
2023-04-02T10:29:54.245Z,87.10
2023-04-02T10:32:27.309Z,87.25
2023-04-02T10:34:59.722Z,88.29
2023-04-02T10:37:49.780Z,89.74
2023-04-02T10:40:21.980Z,90.17
2023-04-02T10:42:59.589Z,89.99
2023-04-02T10:45:40.848Z,89.89
2023-04-02T10:48:15.035Z,88.86
2023-04-02T10:50:49.707Z,90.45
2023-04-02T10:53:20.634Z,89.15
2023-04-02T10:55:53.496Z,89.21
2023-04-02T10:58:25.589Z,90.92
2023-04-02T11:00:58.229Z,90.61
2023-04-02T11:03:34.500Z,90.85
2023-04-02T11:06:05.780Z,90.52
2023-04-02T11:08:42.712Z,90.12
2023-04-02T11:11:14.973Z,89.67
2023-04-02T11:13:51.186Z,90.26
2023-04-02T11:16:19.358Z,91.13
2023-04-02T11:19:22.933Z,89.88
2023-04-02T11:21:58.511Z,89.29
2023-04-02T11:24:37.861Z,90.04
2023-04-02T11:27:08.823Z,90.82
2023-04-02T11:29:38.182Z,88.86
2023-04-02T11:32:27.551Z,88.96
2023-04-02T11:35:18.129Z,88.70
2023-04-02T11:37:46.938Z,87.90
2023-04-02T11:40:45.640Z,86.42
2023-04-02T11:43:50.666Z,88.61
2023-04-02T11:46:41.504Z,86.67
2023-04-02T11:49:35.805Z,87.86
2023-04-02T11:52:11.857Z,87.91
2023-04-02T11:54:40.482Z,88.16
2023-04-02T11:57:21.606Z,86.48
2023-04-02T12:00:07.820Z,87.16
2023-04-02T12:02:45.284Z,88.77
2023-04-02T12:05:27.159Z,87.76
2023-04-02T12:08:22.575Z,88.60
2023-04-02T12:10:57.664Z,87.96
2023-04-02T12:13:54.534Z,88.50
2023-04-02T12:16:24.231Z,89.14
2023-04-02T12:18:54.931Z,88.89
2023-04-02T12:21:24.953Z,87.64
2023-04-02T12:23:54.984Z,87.97
2023-04-02T12:26:36.966Z,88.27
2023-04-02T12:29:26.159Z,89.35
2023-04-02T12:31:54.732Z,90.09
2023-04-02T12:34:24.991Z,90.26
2023-04-02T12:36:55.183Z,90.67
2023-04-02T12:39:23.902Z,91.28
2023-04-02T12:41:52.472Z,91.21
2023-04-02T12:44:22.995Z,92.64
2023-04-02T12:46:53.282Z,92.91
2023-04-02T12:49:36.799Z,91.98
2023-04-02T12:52:07.350Z,91.13
2023-04-02T12:54:39.122Z,92.20
2023-04-02T12:57:24.466Z,92.33
2023-04-02T12:59:52.329Z,92.03
2023-04-02T13:02:23.779Z,92.55
2023-04-02T13:04:52.969Z,91.73
2023-04-02T13:07:23.711Z,91.37
2023-04-02T13:09:53.292Z,91.44
2023-04-02T13:12:26.447Z,91.64
2023-04-02T13:14:56.237Z,90.64
2023-04-02T13:17:46.674Z,90.63
2023-04-02T13:20:33.252Z,90.87
2023-04-02T13:23:03.003Z,90.34
2023-04-02T13:25:33.107Z,90.45
2023-04-02T13:28:00.855Z,89.94
2023-04-02T13:30:30.527Z,89.45
2023-04-02T13:32:59.586Z,89.50
2023-04-02T13:35:27.628Z,90.31
2023-04-02T13:37:55.434Z,89.44
2023-04-02T13:40:23.098Z,90.03
2023-04-02T13:42:51.483Z,90.10
2023-04-02T13:45:25.464Z,90.39
2023-04-02T13:47:53.384Z,89.57
2023-04-02T13:50:24.041Z,88.87
2023-04-02T13:52:52.801Z,89.31
2023-04-02T13:55:24.074Z,89.42
2023-04-02T13:57:51.713Z,90.14
2023-04-02T14:00:20.539Z,89.39
2023-04-02T14:02:53.107Z,90.28
2023-04-02T14:05:34.299Z,89.99
2023-04-02T14:08:09.972Z,90.00
2023-04-02T14:10:55.315Z,89.94
2023-04-02T14:13:40.493Z,89.94
2023-04-02T14:16:28.489Z,88.97
2023-04-02T14:19:10.099Z,89.04
2023-04-02T14:21:50.405Z,87.74
2023-04-02T14:24:23.732Z,88.52
2023-04-02T14:27:03.061Z,88.28
2023-04-02T14:29:36.139Z,88.88
2023-04-02T14:32:07.808Z,89.71
2023-04-02T14:34:43.970Z,89.28
2023-04-02T14:37:21.869Z,88.35
2023-04-02T14:40:01.899Z,87.92
2023-04-02T14:42:34.119Z,87.24
2023-04-02T14:45:08.099Z,87.38
2023-04-02T14:47:40.369Z,87.43
2023-04-02T14:50:14.570Z,88.29
2023-04-02T14:52:47.229Z,90.67
2023-04-02T14:55:24.854Z,90.21
2023-04-02T14:57:54.596Z,90.03
2023-04-02T15:00:30.807Z,89.47
2023-04-02T15:03:05.883Z,89.09
2023-04-02T15:05:41.785Z,88.28
2023-04-02T15:08:19.119Z,88.54
2023-04-02T15:10:58.656Z,90.40
2023-04-02T15:13:37.300Z,88.82
2023-04-02T15:16:11.704Z,89.25
2023-04-02T15:18:39.537Z,89.57
2023-04-02T15:21:23.675Z,89.65
2023-04-02T15:24:01.742Z,88.28
2023-04-02T15:26:37.610Z,87.14
2023-04-02T15:29:27.771Z,87.18
2023-04-02T15:32:05.289Z,85.59
2023-04-02T15:34:37.496Z,84.80
2023-04-02T15:37:11.774Z,85.16
2023-04-02T15:39:52.766Z,85.54
2023-04-02T15:42:24.915Z,84.85
2023-04-02T15:45:13.331Z,84.70
2023-04-02T15:47:47.944Z,83.47
2023-04-02T15:50:37.944Z,82.55
2023-04-02T15:53:16.069Z,83.15
2023-04-02T15:55:50.493Z,83.50
2023-04-02T15:58:25.574Z,84.09
2023-04-02T16:01:08.679Z,82.62
2023-04-02T16:04:01.466Z,83.37
2023-04-02T16:06:32.434Z,82.54
2023-04-02T16:09:08.451Z,82.68
2023-04-02T16:11:37.516Z,84.29
2023-04-02T16:14:26.204Z,83.67
2023-04-02T16:16:58.598Z,82.61
2023-04-02T16:19:32.696Z,83.09
2023-04-02T16:22:06.530Z,83.31
2023-04-02T16:24:34.288Z,82.35
2023-04-02T16:27:14.998Z,82.99
2023-04-02T16:29:55.840Z,82.59
2023-04-02T16:32:40.131Z,81.75
2023-04-02T16:37:56.522Z,82.27
2023-04-02T16:40:34.990Z,82.09
2023-04-02T16:43:16.391Z,81.29
2023-04-02T16:45:54.230Z,80.71
2023-04-02T16:48:32.060Z,80.78
2023-04-02T16:51:11.026Z,80.25
2023-04-02T16:54:00.935Z,80.92
2023-04-02T16:56:44.229Z,80.40
2023-04-02T16:59:23.980Z,80.31
2023-04-02T17:01:57.994Z,80.44
2023-04-02T17:05:03.161Z,81.07
2023-04-02T17:07:36.396Z,81.14
2023-04-02T17:10:21.297Z,81.35
2023-04-02T17:12:56.310Z,80.64
2023-04-02T17:15:28.643Z,81.33
2023-04-02T17:17:58.795Z,81.15
2023-04-02T17:20:27.265Z,80.29
2023-04-02T17:22:56.560Z,80.65
2023-04-02T17:25:27.812Z,80.88
2023-04-02T17:27:56.875Z,79.43
2023-04-02T17:30:37.433Z,79.38
2023-04-02T17:33:12.209Z,79.15
2023-04-02T17:35:49.555Z,79.03
2023-04-02T17:38:27.429Z,79.83
2023-04-02T17:41:03.296Z,79.06
2023-04-02T17:43:44.771Z,78.16
2023-04-02T17:46:20.604Z,77.56
2023-04-02T17:48:52.821Z,77.16
2023-04-02T17:51:30.551Z,77.93
2023-04-02T17:54:10.902Z,77.16
2023-04-02T17:56:59.914Z,77.55
2023-04-02T17:59:39.754Z,76.27
2023-04-02T18:02:24.225Z,76.36
2023-04-02T18:05:01.937Z,76.69
2023-04-02T18:07:41.166Z,76.85
2023-04-02T18:10:16.431Z,76.75
2023-04-02T18:12:57.167Z,77.07
2023-04-02T18:15:49.972Z,76.35
2023-04-02T18:18:47.322Z,77.46
2023-04-02T18:21:23.492Z,76.79
2023-04-02T18:24:03.689Z,75.61
2023-04-02T18:26:40.584Z,75.57
2023-04-02T18:29:22.629Z,76.01
2023-04-02T18:31:55.825Z,76.24
2023-04-02T18:34:45.533Z,75.24
2023-04-02T18:37:20.664Z,75.56
2023-04-02T18:40:03.171Z,75.36
2023-04-02T18:42:48.650Z,75.96
2023-04-02T18:45:22.258Z,76.05
2023-04-02T18:47:58.124Z,74.85
2023-04-02T18:50:31.661Z,75.13
2023-04-02T18:52:59.717Z,74.79
2023-04-02T18:55:30.021Z,74.30
2023-04-02T18:58:02.388Z,73.89
2023-04-02T19:00:32.280Z,72.66
2023-04-02T19:03:04.934Z,73.68
2023-04-02T19:05:41.396Z,73.50
2023-04-02T19:08:15.606Z,72.98
2023-04-02T19:10:45.930Z,73.13
2023-04-02T19:13:16.388Z,72.94
2023-04-02T19:16:18.750Z,72.63
2023-04-02T19:18:59.461Z,72.66
2023-04-02T19:21:40.888Z,72.06
2023-04-02T19:24:25.658Z,72.78
2023-04-02T19:26:57.723Z,72.98
2023-04-02T19:29:36.365Z,72.87
2023-04-02T19:32:14.004Z,73.26
2023-04-02T19:34:47.482Z,72.86
2023-04-02T19:37:22.747Z,73.56
2023-04-02T19:40:16.796Z,73.19
2023-04-02T19:42:47.227Z,73.16
2023-04-02T19:45:38.793Z,72.94
2023-04-02T19:48:15.296Z,72.94
2023-04-02T19:50:43.893Z,72.58
2023-04-02T19:53:13.162Z,72.93
2023-04-02T19:55:41.137Z,73.30
2023-04-02T19:58:19.155Z,72.68
2023-04-02T20:00:47.745Z,72.79
2023-04-02T20:03:15.603Z,73.17
2023-04-02T20:05:43.612Z,71.88
2023-04-02T20:08:11.439Z,72.45
2023-04-02T20:10:40.666Z,72.10
2023-04-02T20:13:09.016Z,73.16
2023-04-02T20:15:37.314Z,72.30
2023-04-02T20:18:05.810Z,72.87
2023-04-02T20:20:34.400Z,71.78
2023-04-02T20:23:02.374Z,71.46
2023-04-02T20:25:30.066Z,71.59
2023-04-02T20:28:01.045Z,71.43
2023-04-02T20:30:28.787Z,72.05
2023-04-02T20:32:59.723Z,72.40
2023-04-02T20:35:27.790Z,72.16
2023-04-02T20:37:55.503Z,71.76
2023-04-02T20:40:25.009Z,71.64
2023-04-02T20:42:53.430Z,71.99
2023-04-02T20:45:22.562Z,72.65
2023-04-02T20:47:50.302Z,71.40
2023-04-02T20:50:18.272Z,71.22
2023-04-02T20:52:46.100Z,71.51
2023-04-02T20:55:13.826Z,70.40
2023-04-02T20:57:41.456Z,70.58
2023-04-02T21:00:11.374Z,69.73
2023-04-02T21:02:40.556Z,69.80
2023-04-02T21:05:09.001Z,69.69
2023-04-02T21:07:36.796Z,69.57
2023-04-02T21:10:04.828Z,69.93
2023-04-02T21:12:32.466Z,69.44
2023-04-02T21:15:02.504Z,70.89
2023-04-02T21:17:31.180Z,70.68
2023-04-02T21:20:00.314Z,69.96
2023-04-02T21:22:28.082Z,69.74
2023-04-02T21:24:55.841Z,70.23
2023-04-02T21:27:25.889Z,70.15
2023-04-02T21:29:53.911Z,69.99
2023-04-02T21:32:22.277Z,70.73
2023-04-02T21:34:50.229Z,69.96
2023-04-02T21:37:19.156Z,70.24
2023-04-02T21:39:46.832Z,70.48
2023-04-02T21:42:15.188Z,70.29
2023-04-02T21:44:42.838Z,70.17
2023-04-02T21:47:10.629Z,69.60
2023-04-02T21:49:38.260Z,69.88
2023-04-02T21:52:06.176Z,69.79
2023-04-02T21:54:35.186Z,69.51
2023-04-02T21:57:02.846Z,69.83
2023-04-02T21:59:30.482Z,69.40
2023-04-02T22:01:58.128Z,69.70
2023-04-02T22:04:28.263Z,70.34
2023-04-02T22:06:56.123Z,70.64
2023-04-02T22:09:26.247Z,70.70
2023-04-02T22:11:59.511Z,69.96
2023-04-02T22:14:28.128Z,70.50
2023-04-02T22:16:56.082Z,69.75
2023-04-02T22:19:23.997Z,70.59
2023-04-02T22:21:51.804Z,70.11
2023-04-02T22:24:21.939Z,70.69
2023-04-02T22:26:49.941Z,69.43
2023-04-02T22:29:19.281Z,70.58
2023-04-02T22:31:47.239Z,70.19
2023-04-02T22:34:15.695Z,69.44
2023-04-02T22:36:43.299Z,70.42
2023-04-02T22:39:12.139Z,70.50
2023-04-02T22:41:39.893Z,69.93
2023-04-02T22:44:07.876Z,69.68
2023-04-02T22:46:37.117Z,69.53
2023-04-02T22:49:04.868Z,68.88
2023-04-02T22:51:32.480Z,69.81
2023-04-02T22:54:00.246Z,69.77
2023-04-02T22:56:31.683Z,68.72
2023-04-02T22:58:59.344Z,68.04
2023-04-02T23:01:29.611Z,67.08
2023-04-02T23:03:58.658Z,66.12
2023-04-02T23:06:27.808Z,65.95
2023-04-02T23:08:55.631Z,66.64
2023-04-02T23:11:24.911Z,66.83
2023-04-02T23:13:54.872Z,66.68
2023-04-02T23:16:22.569Z,66.19
2023-04-02T23:18:50.449Z,64.23
2023-04-02T23:21:20.881Z,63.03
2023-04-02T23:23:50.348Z,62.64
2023-04-02T23:26:21.095Z,62.81
2023-04-02T23:28:49.389Z,61.06
2023-04-02T23:31:18.566Z,61.55
2023-04-02T23:33:46.688Z,62.02
2023-04-02T23:36:19.092Z,62.32
2023-04-02T23:38:48.351Z,62.56
2023-04-02T23:41:17.757Z,63.52
2023-04-02T23:43:45.715Z,63.50
2023-04-02T23:46:13.422Z,63.78
2023-04-02T23:48:41.335Z,64.17
2023-04-02T23:51:09.107Z,65.17
2023-04-02T23:53:36.784Z,65.09
2023-04-02T23:56:06.105Z,65.01
2023-04-02T23:58:33.816Z,65.40
